createdAt,value
2023-09-27T00:00:58.670Z,95203.63
2023-09-27T00:03:25.093Z,95208.50
2023-09-27T00:05:51.600Z,95212.13
2023-09-27T00:08:18.095Z,95212.03
2023-09-27T00:10:44.502Z,95215.69
2023-09-27T00:13:11.131Z,95214.25
2023-09-27T00:15:37.506Z,95215.16
2023-09-27T00:18:03.943Z,95223.53
2023-09-27T00:20:30.352Z,95228.81
2023-09-27T00:22:56.822Z,95223.88
2023-09-27T00:25:23.224Z,95214.56
2023-09-27T00:27:49.761Z,95216.53
2023-09-27T00:30:16.176Z,95219.16
2023-09-27T00:32:42.894Z,95225.13
2023-09-27T00:35:09.382Z,95226.19
2023-09-27T00:37:35.825Z,95221.41
2023-09-27T00:40:02.212Z,95219.75
2023-09-27T00:42:28.587Z,95226.44
2023-09-27T00:44:55.021Z,95216.22
2023-09-27T00:47:21.429Z,95223.31
2023-09-27T00:49:47.876Z,95227.34
2023-09-27T00:52:14.259Z,95217.41
2023-09-27T00:54:40.673Z,95219.94
2023-09-27T00:57:07.050Z,95218.69
2023-09-27T00:59:33.510Z,95215.41
2023-09-27T01:02:00.027Z,95214.41
2023-09-27T01:04:26.471Z,95212.16
2023-09-27T01:06:52.852Z,95212.25
2023-09-27T01:09:19.243Z,95219.19
2023-09-27T01:11:45.642Z,95215.41
2023-09-27T01:14:12.074Z,95216.03
2023-09-27T01:16:38.485Z,95211.19
2023-09-27T01:19:04.891Z,95211.75
2023-09-27T01:21:31.273Z,95205.63
2023-09-27T01:23:57.666Z,95211.38
2023-09-27T01:26:24.214Z,95218.53
2023-09-27T01:28:50.655Z,95210.47
2023-09-27T01:31:17.234Z,95207.81
2023-09-27T01:33:43.636Z,95208.25
2023-09-27T01:36:10.031Z,95208.88
2023-09-27T01:38:36.480Z,95218.75
2023-09-27T01:41:02.957Z,95210.00
2023-09-27T01:43:29.364Z,95202.56
2023-09-27T01:45:55.765Z,95210.69
2023-09-27T01:48:22.216Z,95195.19
2023-09-27T01:50:48.678Z,95208.25
2023-09-27T01:53:15.073Z,95205.59
2023-09-27T01:55:41.479Z,95198.66
2023-09-27T01:58:07.858Z,95204.41
2023-09-27T02:00:34.236Z,95201.38
2023-09-27T02:03:00.786Z,95204.84
2023-09-27T02:05:27.385Z,95211.78
2023-09-27T02:07:53.879Z,95205.94
2023-09-27T02:10:20.301Z,95203.53
2023-09-27T02:12:46.729Z,95211.53
2023-09-27T02:15:13.113Z,95211.97
2023-09-27T02:17:39.524Z,95211.84
2023-09-27T02:20:05.930Z,95210.94
2023-09-27T02:22:32.371Z,95209.75
2023-09-27T02:24:58.757Z,95223.78
2023-09-27T02:27:25.152Z,95227.66
2023-09-27T02:29:51.520Z,95232.03
2023-09-27T02:32:17.943Z,95222.13
2023-09-27T02:34:44.386Z,95222.50
2023-09-27T02:37:10.801Z,95224.03
2023-09-27T02:39:37.235Z,95219.50
2023-09-27T02:42:03.622Z,95219.56
2023-09-27T02:44:30.068Z,95215.88
2023-09-27T02:46:56.581Z,95219.88
2023-09-27T02:49:23.034Z,95215.75
2023-09-27T02:51:49.466Z,95217.16
2023-09-27T02:54:15.855Z,95226.09
2023-09-27T02:56:42.279Z,95215.31
2023-09-27T02:59:08.702Z,95213.88
2023-09-27T03:01:35.153Z,95213.06
2023-09-27T03:04:01.670Z,95210.56
2023-09-27T03:06:28.085Z,95217.09
2023-09-27T03:08:54.549Z,95214.47
2023-09-27T03:11:21.255Z,95221.84
2023-09-27T03:13:47.653Z,95222.28
2023-09-27T03:16:14.085Z,95226.69
2023-09-27T03:18:40.511Z,95225.34
2023-09-27T03:21:06.889Z,95217.88
2023-09-27T03:23:33.314Z,95220.94
2023-09-27T03:25:59.855Z,95217.69
2023-09-27T03:28:26.245Z,95216.66
2023-09-27T03:30:52.616Z,95221.63
2023-09-27T03:33:19.051Z,95218.22
2023-09-27T03:35:45.469Z,95228.06
2023-09-27T03:38:11.853Z,95219.59
2023-09-27T03:40:38.288Z,95223.97
2023-09-27T03:43:04.771Z,95219.94
2023-09-27T03:45:31.154Z,95220.88
2023-09-27T03:47:57.601Z,95222.03
2023-09-27T03:50:24.090Z,95226.06
2023-09-27T03:52:50.529Z,95222.44
2023-09-27T03:55:16.938Z,95218.84
2023-09-27T03:57:43.378Z,95222.78
2023-09-27T04:00:09.762Z,95230.00
2023-09-27T04:02:36.210Z,95217.66
2023-09-27T04:05:02.666Z,95225.47
2023-09-27T04:07:29.084Z,95225.13
2023-09-27T04:09:55.457Z,95229.41
2023-09-27T04:12:21.831Z,95220.28
2023-09-27T04:14:48.206Z,95217.75
2023-09-27T04:17:14.651Z,95212.09
2023-09-27T04:19:41.084Z,95221.22
2023-09-27T04:22:07.519Z,95210.25
2023-09-27T04:24:33.912Z,95215.97
2023-09-27T04:27:00.292Z,95214.53
2023-09-27T04:29:26.673Z,95219.00
2023-09-27T04:31:53.091Z,95211.53
2023-09-27T04:34:19.503Z,95218.28
2023-09-27T04:36:45.893Z,95216.41
2023-09-27T04:39:12.289Z,95225.00
2023-09-27T04:41:38.692Z,95225.91
2023-09-27T04:44:05.102Z,95228.88
2023-09-27T04:46:31.497Z,95229.91
2023-09-27T04:48:57.864Z,95224.16
2023-09-27T04:51:24.261Z,95219.69
2023-09-27T04:53:50.656Z,95221.53
2023-09-27T04:56:17.065Z,95225.63
2023-09-27T04:58:43.538Z,95226.34
2023-09-27T05:01:09.952Z,95223.50
2023-09-27T05:03:36.441Z,95226.81
2023-09-27T05:06:02.890Z,95230.09
2023-09-27T05:08:29.347Z,95228.19
2023-09-27T05:10:55.802Z,95233.00
2023-09-27T05:13:22.244Z,95232.56
2023-09-27T05:15:48.630Z,95231.56
2023-09-27T05:18:15.071Z,95239.56
2023-09-27T05:20:41.550Z,95232.47
2023-09-27T05:23:07.989Z,95230.81
2023-09-27T05:25:34.444Z,95228.19
2023-09-27T05:28:00.831Z,95230.91
2023-09-27T05:30:27.207Z,95229.09
2023-09-27T05:32:53.667Z,95227.75
2023-09-27T05:35:20.112Z,95223.56
2023-09-27T05:37:46.597Z,95226.19
2023-09-27T05:40:13.006Z,95228.28
2023-09-27T05:42:39.432Z,95227.38
2023-09-27T05:45:05.858Z,95234.28
2023-09-27T05:47:32.343Z,95232.03
2023-09-27T05:49:58.902Z,95237.50
2023-09-27T05:52:25.323Z,95236.13
2023-09-27T05:54:51.700Z,95235.59
2023-09-27T05:57:18.066Z,95237.84
2023-09-27T05:59:44.568Z,95233.75
2023-09-27T06:02:10.948Z,95232.28
2023-09-27T06:04:37.364Z,95229.72
2023-09-27T06:07:03.752Z,95237.03
2023-09-27T06:09:30.139Z,95237.28
2023-09-27T06:11:56.564Z,95232.53
2023-09-27T06:14:23.000Z,95227.47
2023-09-27T06:16:49.614Z,95224.19
2023-09-27T06:19:15.997Z,95231.25
2023-09-27T06:21:42.403Z,95234.47
2023-09-27T06:24:08.795Z,95230.38
2023-09-27T06:26:35.204Z,95238.22
2023-09-27T06:29:01.885Z,95248.97
2023-09-27T06:31:28.894Z,95247.72
2023-09-27T06:33:55.404Z,95246.97
2023-09-27T06:36:21.786Z,95248.94
2023-09-27T06:38:48.317Z,95254.63
2023-09-27T06:41:14.804Z,95254.56
2023-09-27T06:43:41.216Z,95246.38
2023-09-27T06:46:07.698Z,95246.56
2023-09-27T06:48:34.141Z,95237.44
2023-09-27T06:51:00.546Z,95247.50
2023-09-27T06:53:31.310Z,95235.38
2023-09-27T06:55:59.915Z,95235.09
2023-09-27T06:58:26.463Z,95235.88
2023-09-27T07:00:52.967Z,95232.34
2023-09-27T07:03:19.539Z,95233.28
2023-09-27T07:05:45.989Z,95236.38
2023-09-27T07:08:12.455Z,95232.13
2023-09-27T07:10:38.884Z,95226.78
2023-09-27T07:13:05.246Z,95226.13
2023-09-27T07:15:31.619Z,95227.09
2023-09-27T07:17:58.088Z,95218.94
2023-09-27T07:20:24.710Z,95215.47
2023-09-27T07:22:51.243Z,95223.31
2023-09-27T07:25:17.641Z,95235.25
2023-09-27T07:27:44.042Z,95231.22
2023-09-27T07:30:10.439Z,95226.69
2023-09-27T07:32:36.913Z,95219.44
2023-09-27T07:35:03.391Z,95223.34
2023-09-27T07:37:29.777Z,95214.16
2023-09-27T07:39:56.191Z,95218.50
2023-09-27T07:42:22.598Z,95230.75
2023-09-27T07:44:48.969Z,95225.47
2023-09-27T07:47:15.396Z,95223.84
2023-09-27T07:49:41.963Z,95225.66
2023-09-27T07:52:08.364Z,95225.22
2023-09-27T07:54:34.819Z,95226.69
2023-09-27T07:57:01.226Z,95225.69
2023-09-27T07:59:27.639Z,95217.75
2023-09-27T08:01:54.023Z,95210.00
2023-09-27T08:04:20.492Z,95206.34
2023-09-27T08:06:46.979Z,95207.84
2023-09-27T08:09:23.960Z,95196.56
2023-09-27T08:11:59.700Z,95203.13
2023-09-27T08:14:26.106Z,95206.22
2023-09-27T08:16:53.716Z,95203.00
2023-09-27T08:19:20.136Z,95203.59
2023-09-27T08:21:46.510Z,95195.84
2023-09-27T08:24:12.904Z,95208.31
2023-09-27T08:26:39.305Z,95202.66
2023-09-27T08:29:05.709Z,95202.03
2023-09-27T08:31:32.106Z,95204.91
2023-09-27T08:33:58.525Z,95200.81
2023-09-27T08:36:24.910Z,95196.72
2023-09-27T08:38:51.377Z,95192.22
2023-09-27T08:41:17.836Z,95195.47
2023-09-27T08:43:44.263Z,95196.75
2023-09-27T08:46:10.664Z,95197.97
2023-09-27T08:48:37.109Z,95188.94
2023-09-27T08:51:03.518Z,95195.06
2023-09-27T08:53:29.929Z,95191.81
2023-09-27T08:55:56.341Z,95182.84
2023-09-27T08:58:22.707Z,95181.81
2023-09-27T09:00:49.096Z,95192.84
2023-09-27T09:03:15.625Z,95185.88
2023-09-27T09:05:42.247Z,95181.59
2023-09-27T09:08:08.748Z,95182.78
2023-09-27T09:10:35.153Z,95184.84
2023-09-27T09:13:01.642Z,95179.09
2023-09-27T09:15:28.077Z,95178.31
2023-09-27T09:17:54.569Z,95177.66
2023-09-27T09:20:21.098Z,95177.66
2023-09-27T09:22:47.505Z,95172.72
2023-09-27T09:25:13.881Z,95169.47
2023-09-27T09:27:41.722Z,95169.00
2023-09-27T09:30:09.232Z,95163.03
2023-09-27T09:32:35.665Z,95168.75
2023-09-27T09:35:02.135Z,95164.00
2023-09-27T09:37:28.516Z,95173.00
2023-09-27T09:39:54.900Z,95176.22
2023-09-27T09:42:21.284Z,95176.00
2023-09-27T09:44:47.668Z,95178.16
2023-09-27T09:47:14.060Z,95171.78
2023-09-27T09:49:40.461Z,95181.38
2023-09-27T09:52:06.847Z,95183.56
2023-09-27T09:54:33.332Z,95186.25
2023-09-27T09:57:09.132Z,95178.41
2023-09-27T09:59:40.394Z,95180.56
2023-09-27T10:02:06.820Z,95177.63
2023-09-27T10:04:33.953Z,95178.03
2023-09-27T10:07:01.513Z,95169.78
2023-09-27T10:09:27.894Z,95161.28
2023-09-27T10:11:54.402Z,95165.31
2023-09-27T10:14:20.832Z,95160.38
2023-09-27T10:16:47.353Z,95157.50
2023-09-27T10:19:13.737Z,95152.25
2023-09-27T10:21:40.121Z,95155.28
2023-09-27T10:24:06.506Z,95147.16
2023-09-27T10:26:32.985Z,95138.47
2023-09-27T10:28:59.452Z,95143.97
2023-09-27T10:31:25.916Z,95143.44
2023-09-27T10:33:52.519Z,95134.59
2023-09-27T10:36:19.066Z,95136.47
2023-09-27T10:38:45.451Z,95125.97
2023-09-27T10:41:11.970Z,95126.50
2023-09-27T10:43:38.392Z,95118.31
2023-09-27T10:46:04.770Z,95117.28
2023-09-27T10:48:31.200Z,95114.03
2023-09-27T10:50:57.589Z,95123.94
2023-09-27T10:53:24.006Z,95120.25
2023-09-27T10:55:50.405Z,95117.19
2023-09-27T10:58:16.800Z,95119.97
2023-09-27T11:00:43.184Z,95110.72
2023-09-27T11:03:09.678Z,95107.63
2023-09-27T11:05:36.151Z,95104.47
2023-09-27T11:08:02.559Z,95101.69
2023-09-27T11:10:28.940Z,95097.81
2023-09-27T11:12:55.317Z,95088.47
2023-09-27T11:15:21.705Z,95091.78
2023-09-27T11:17:48.260Z,95086.41
2023-09-27T11:20:14.770Z,95080.34
2023-09-27T11:22:41.177Z,95081.50
2023-09-27T11:25:07.569Z,95076.63
2023-09-27T11:27:33.958Z,95074.31
2023-09-27T11:30:00.367Z,95072.28
2023-09-27T11:32:26.749Z,95071.47
2023-09-27T11:34:53.110Z,95062.97
2023-09-27T11:37:19.480Z,95060.75
2023-09-27T11:39:45.866Z,95051.31
2023-09-27T11:42:12.242Z,95051.88
2023-09-27T11:44:38.743Z,95044.91
2023-09-27T11:47:05.234Z,95046.16
2023-09-27T11:49:31.606Z,95045.25
2023-09-27T11:52:00.859Z,95037.06
2023-09-27T11:54:27.825Z,95044.75
2023-09-27T11:56:54.264Z,95043.31
2023-09-27T11:59:20.726Z,95041.75
2023-09-27T12:01:47.129Z,95044.84
2023-09-27T12:04:13.723Z,95031.81
2023-09-27T12:06:40.456Z,95041.94
2023-09-27T12:09:07.070Z,95031.13
2023-09-27T12:11:33.528Z,95029.34
2023-09-27T12:13:59.967Z,95023.91
2023-09-27T12:16:26.360Z,95014.41
2023-09-27T12:18:52.815Z,95017.66
2023-09-27T12:21:19.343Z,95015.41
2023-09-27T12:23:45.897Z,95015.75
2023-09-27T12:26:12.361Z,95018.13
2023-09-27T12:28:38.758Z,95006.75
2023-09-27T12:31:05.173Z,95010.53
2023-09-27T12:33:31.665Z,95004.75
2023-09-27T12:35:58.216Z,95011.28
2023-09-27T12:38:24.628Z,95004.09
2023-09-27T12:40:51.013Z,95002.25
2023-09-27T12:43:17.386Z,94994.50
2023-09-27T12:45:44.148Z,95000.78
2023-09-27T12:48:10.713Z,94987.97
2023-09-27T12:50:37.188Z,94994.81
2023-09-27T12:53:03.612Z,95001.63
2023-09-27T12:55:29.984Z,95000.97
2023-09-27T12:57:56.485Z,94998.44
2023-09-27T13:00:22.923Z,94996.31
2023-09-27T13:02:49.462Z,95001.09
2023-09-27T13:05:16.003Z,95000.59
2023-09-27T13:07:42.494Z,94999.47
2023-09-27T13:10:08.912Z,94989.72
2023-09-27T13:12:35.293Z,94984.44
2023-09-27T13:15:01.677Z,94980.06
2023-09-27T13:17:28.153Z,94987.84
2023-09-27T13:19:54.618Z,94993.50
2023-09-27T13:22:21.024Z,94985.81
2023-09-27T13:24:47.421Z,94985.69
2023-09-27T13:27:13.830Z,94986.53
2023-09-27T13:29:40.262Z,94986.38
2023-09-27T13:32:06.718Z,94982.16
2023-09-27T13:34:33.996Z,94976.56
2023-09-27T13:37:00.445Z,94970.94
2023-09-27T13:39:26.955Z,94972.88
2023-09-27T13:41:53.529Z,94958.41
2023-09-27T13:44:20.045Z,94962.25
2023-09-27T13:46:46.512Z,94960.16
2023-09-27T13:49:12.938Z,94954.97
2023-09-27T13:51:39.432Z,94953.28
2023-09-27T13:54:05.822Z,94956.78
2023-09-27T13:56:32.233Z,94957.91
2023-09-27T13:58:58.669Z,94958.63
2023-09-27T14:01:25.115Z,94954.03
2023-09-27T14:03:51.612Z,94947.34
2023-09-27T14:06:18.176Z,94939.56
2023-09-27T14:08:44.710Z,94951.44
2023-09-27T14:11:11.155Z,94949.22
2023-09-27T14:13:37.533Z,94940.88
2023-09-27T14:16:03.972Z,94940.06
2023-09-27T14:18:30.479Z,94939.03
2023-09-27T14:20:57.034Z,94936.88
2023-09-27T14:23:23.529Z,94935.50
2023-09-27T14:25:49.937Z,94927.72
2023-09-27T14:28:16.309Z,94931.00
2023-09-27T14:30:42.686Z,94931.06
2023-09-27T14:33:09.104Z,94932.66
2023-09-27T14:35:51.840Z,94925.22
2023-09-27T14:38:19.128Z,94933.06
2023-09-27T14:40:45.510Z,94926.34
2023-09-27T14:43:11.900Z,94934.75
2023-09-27T14:45:38.305Z,94927.16
2023-09-27T14:48:04.722Z,94933.88
2023-09-27T14:50:31.148Z,94933.81
2023-09-27T14:52:57.605Z,94934.59
2023-09-27T14:55:24.040Z,94940.22
2023-09-27T14:57:50.455Z,94932.31
2023-09-27T15:00:16.839Z,94936.88
2023-09-27T15:02:43.341Z,94941.13
2023-09-27T15:05:09.824Z,94945.94
2023-09-27T15:07:36.273Z,94941.31
2023-09-27T15:10:02.670Z,94943.09
2023-09-27T15:12:31.209Z,94941.91
2023-09-27T15:14:57.575Z,94950.91
2023-09-27T15:17:23.939Z,94943.63
2023-09-27T15:19:50.552Z,94941.53
2023-09-27T15:22:16.980Z,94944.22
2023-09-27T15:24:43.352Z,94935.41
2023-09-27T15:27:09.748Z,94935.41
2023-09-27T15:29:36.142Z,94934.34
2023-09-27T15:32:02.698Z,94929.72
2023-09-27T15:34:29.190Z,94939.72
2023-09-27T15:36:55.637Z,94944.03
2023-09-27T15:39:22.020Z,94947.00
2023-09-27T15:41:48.453Z,94938.88
2023-09-27T15:44:14.841Z,94947.94
2023-09-27T15:46:41.280Z,94952.66
2023-09-27T15:49:07.683Z,94955.44
2023-09-27T15:51:34.058Z,94962.00
2023-09-27T15:54:15.412Z,94951.47
2023-09-27T15:56:44.751Z,94953.47
2023-09-27T15:59:11.218Z,94951.63
2023-09-27T16:01:37.807Z,94953.06
2023-09-27T16:04:04.311Z,94944.69
2023-09-27T16:06:30.741Z,94945.00
2023-09-27T16:08:57.134Z,94947.19
2023-09-27T16:11:23.606Z,94941.53
2023-09-27T16:13:50.059Z,94949.91
2023-09-27T16:16:16.519Z,94948.25
2023-09-27T16:18:42.936Z,94941.72
2023-09-27T16:21:09.353Z,94941.41
2023-09-27T16:23:35.858Z,94944.81
2023-09-27T16:26:02.457Z,94951.94
2023-09-27T16:28:28.980Z,94948.50
2023-09-27T16:30:55.877Z,94956.75
2023-09-27T16:33:22.476Z,94966.31
2023-09-27T16:35:48.960Z,94965.84
2023-09-27T16:38:15.335Z,94968.63
2023-09-27T16:40:41.780Z,94974.00
2023-09-27T16:43:08.210Z,94984.22
2023-09-27T16:45:34.628Z,94973.59
2023-09-27T16:48:01.157Z,94972.69
2023-09-27T16:50:27.556Z,94974.44
2023-09-27T16:52:53.931Z,94975.44
2023-09-27T16:55:20.378Z,94986.06
2023-09-27T16:57:46.767Z,94976.97
2023-09-27T17:00:13.198Z,94971.66
2023-09-27T17:02:39.709Z,94974.78
2023-09-27T17:05:06.321Z,94973.28
2023-09-27T17:07:32.778Z,94978.91
2023-09-27T17:09:59.149Z,94975.91
2023-09-27T17:12:25.529Z,94973.72
2023-09-27T17:14:51.930Z,94974.34
2023-09-27T17:17:18.314Z,94976.84
2023-09-27T17:19:44.734Z,94974.03
2023-09-27T17:22:11.302Z,94984.00
2023-09-27T17:24:37.696Z,94986.03
2023-09-27T17:27:04.080Z,94980.91
2023-09-27T17:29:30.452Z,94984.22
2023-09-27T17:31:56.947Z,94981.28
2023-09-27T17:34:23.472Z,94987.16
2023-09-27T17:36:49.885Z,94980.13
2023-09-27T17:39:16.311Z,94977.19
2023-09-27T17:41:42.719Z,94969.66
2023-09-27T17:44:09.162Z,94980.28
2023-09-27T17:46:35.607Z,94973.66
2023-09-27T17:49:01.999Z,94965.53
2023-09-27T17:51:28.389Z,94970.66
2023-09-27T17:53:54.943Z,94972.72
2023-09-27T17:56:21.596Z,94972.84
2023-09-27T17:58:48.036Z,94976.59
2023-09-27T18:01:14.489Z,94969.59
2023-09-27T18:03:40.998Z,94976.66
2023-09-27T18:06:07.465Z,94979.47
2023-09-27T18:08:33.886Z,94983.28
2023-09-27T18:11:00.289Z,94981.16
2023-09-27T18:13:26.735Z,94981.06
2023-09-27T18:15:53.187Z,94992.38
2023-09-27T18:18:19.640Z,94984.94
2023-09-27T18:20:46.032Z,94987.47
2023-09-27T18:23:12.519Z,94988.47
2023-09-27T18:25:38.934Z,94989.03
2023-09-27T18:28:05.363Z,94984.75
2023-09-27T18:30:31.747Z,94989.44
2023-09-27T18:32:58.154Z,94987.81
2023-09-27T18:35:24.545Z,94991.00
2023-09-27T18:37:50.990Z,94989.75
2023-09-27T18:40:17.403Z,94982.41
2023-09-27T18:42:43.777Z,94986.78
2023-09-27T18:45:10.150Z,94995.75
2023-09-27T18:47:36.633Z,94987.72
2023-09-27T18:50:03.171Z,94992.94
2023-09-27T18:52:29.626Z,94990.78
2023-09-27T18:54:56.035Z,94997.03
2023-09-27T18:57:22.448Z,95001.06
2023-09-27T18:59:48.823Z,95000.09
2023-09-27T19:02:15.230Z,94999.16
2023-09-27T19:04:41.742Z,95008.69
2023-09-27T19:07:08.143Z,95010.41
2023-09-27T19:09:34.541Z,95011.75
2023-09-27T19:12:00.932Z,95007.34
2023-09-27T19:14:27.308Z,95011.97
2023-09-27T19:16:53.741Z,95018.47
2023-09-27T19:19:20.167Z,95025.22
2023-09-27T19:21:46.566Z,95016.09
2023-09-27T19:24:12.930Z,95017.72
2023-09-27T19:26:39.300Z,95016.72
2023-09-27T19:29:05.712Z,95013.16
2023-09-27T19:31:32.197Z,95005.78
2023-09-27T19:33:58.617Z,95007.81
2023-09-27T19:36:24.992Z,95003.28
2023-09-27T19:38:51.415Z,95015.75
2023-09-27T19:41:17.796Z,95012.81
2023-09-27T19:43:44.199Z,95016.13
2023-09-27T19:46:10.661Z,95016.72
2023-09-27T19:48:37.111Z,95016.97
2023-09-27T19:51:03.486Z,95017.00
2023-09-27T19:53:29.850Z,95023.59
2023-09-27T19:55:56.237Z,95010.75
2023-09-27T19:58:22.636Z,95020.38
2023-09-27T20:00:49.015Z,95021.78
2023-09-27T20:03:15.444Z,95016.66
2023-09-27T20:05:41.904Z,95018.84
2023-09-27T20:08:08.301Z,95014.56
2023-09-27T20:10:34.720Z,95019.41
2023-09-27T20:13:01.131Z,95019.38
2023-09-27T20:15:27.518Z,95023.44
2023-09-27T20:17:53.915Z,95014.38
2023-09-27T20:20:20.359Z,95018.25
2023-09-27T20:22:46.770Z,95018.41
2023-09-27T20:25:13.140Z,95027.44
2023-09-27T20:27:39.612Z,95028.41
2023-09-27T20:30:06.006Z,95024.75
2023-09-27T20:32:32.429Z,95021.03
2023-09-27T20:34:58.973Z,95019.28
2023-09-27T20:37:25.492Z,95015.59
2023-09-27T20:39:51.867Z,95017.03
2023-09-27T20:42:18.254Z,95012.13
2023-09-27T20:44:44.627Z,95011.66
2023-09-27T20:47:11.043Z,95019.63
2023-09-27T20:49:37.485Z,95019.03
2023-09-27T20:52:03.924Z,95020.53
2023-09-27T20:54:30.313Z,95028.19
2023-09-27T20:56:56.747Z,95024.66
2023-09-27T20:59:23.172Z,95019.16
2023-09-27T21:01:49.649Z,95024.59
2023-09-27T21:04:16.080Z,95021.41
2023-09-27T21:06:42.483Z,95021.78
2023-09-27T21:09:08.867Z,95020.53
2023-09-27T21:11:35.230Z,95013.78
2023-09-27T21:14:01.785Z,95014.00
2023-09-27T21:16:28.256Z,95024.88
2023-09-27T21:18:54.681Z,95028.63
2023-09-27T21:21:21.074Z,95029.31
2023-09-27T21:23:47.493Z,95019.59
2023-09-27T21:26:13.884Z,95032.13
2023-09-27T21:28:40.279Z,95031.94
2023-09-27T21:31:06.701Z,95029.09
2023-09-27T21:33:33.091Z,95029.13
2023-09-27T21:35:59.468Z,95030.78
2023-09-27T21:38:25.858Z,95030.56
2023-09-27T21:40:52.268Z,95032.22
2023-09-27T21:43:18.671Z,95023.44
2023-09-27T21:45:45.124Z,95035.28
2023-09-27T21:48:11.532Z,95037.97
2023-09-27T21:50:37.936Z,95034.88
2023-09-27T21:53:04.341Z,95033.84
2023-09-27T21:55:30.852Z,95038.56
2023-09-27T21:57:57.294Z,95041.41
2023-09-27T22:00:23.671Z,95039.38
2023-09-27T22:02:50.121Z,95041.00
2023-09-27T22:05:16.662Z,95031.78
2023-09-27T22:07:43.061Z,95027.50
2023-09-27T22:10:09.453Z,95022.41
2023-09-27T22:12:35.846Z,95028.53
2023-09-27T22:15:02.231Z,95024.69
2023-09-27T22:17:28.668Z,95020.78
2023-09-27T22:19:55.128Z,95027.91
2023-09-27T22:22:21.551Z,95030.38
2023-09-27T22:24:47.969Z,95029.13
2023-09-27T22:27:14.357Z,95028.75
2023-09-27T22:29:40.780Z,95025.25
2023-09-27T22:32:07.188Z,95026.31
2023-09-27T22:34:33.590Z,95024.88
2023-09-27T22:37:00.005Z,95022.84
2023-09-27T22:39:26.394Z,95024.69
2023-09-27T22:41:52.783Z,95023.22
2023-09-27T22:44:19.237Z,95032.22
2023-09-27T22:46:45.651Z,95023.78
2023-09-27T22:49:12.060Z,95020.75
2023-09-27T22:51:38.440Z,95028.31
2023-09-27T22:54:04.836Z,95031.59
2023-09-27T22:56:31.214Z,95031.59
2023-09-27T22:58:57.643Z,95020.75
2023-09-27T23:01:24.230Z,95027.53
2023-09-27T23:03:50.663Z,95028.72
2023-09-27T23:06:17.104Z,95024.84
2023-09-27T23:08:43.466Z,95032.41
2023-09-27T23:11:09.948Z,95036.06
2023-09-27T23:13:36.610Z,95041.00
2023-09-27T23:16:03.047Z,95043.69
2023-09-27T23:18:29.459Z,95043.06
2023-09-27T23:20:55.828Z,95045.31
2023-09-27T23:23:22.199Z,95044.06
2023-09-27T23:25:48.571Z,95038.75
2023-09-27T23:28:15.041Z,95028.53
2023-09-27T23:30:41.410Z,95031.41
2023-09-27T23:33:07.827Z,95028.50
2023-09-27T23:35:34.224Z,95029.34
2023-09-27T23:38:00.633Z,95026.91
2023-09-27T23:40:27.089Z,95028.31
2023-09-27T23:42:53.467Z,95032.81
2023-09-27T23:45:19.835Z,95034.88
2023-09-27T23:47:46.365Z,95033.63
2023-09-27T23:50:12.843Z,95041.38
2023-09-27T23:52:39.284Z,95052.47
2023-09-27T23:55:05.684Z,95051.06
2023-09-27T23:57:32.066Z,95047.22
2023-09-27T23:59:58.451Z,95050.09
